Terminal Aerodrome Forecast
Issued by NWS

Home | Current Version | Previous Version | Graphics & Text | Print | Product List | Glossary Off
Versions: 1 2 3 4 5 6 7 8 9 10 11 12 13 14 15 16 17 18 19 20 21 22 23 24 25 26 27 28 29 30 31 32 33 34 35 36 37 38 39 40

000
FTUS43 KDDC 300538
TAFHYS
TAF
KHYS 300538Z 3006/0106 36019G23KT 6SM -RA BR OVC006
     FM301000 01020KT 1 1/2SM -SN BR OVC003
      TEMPO 3015/3019 1SM -SN OVC003
     FM302300 34028G37KT P6SM VCSH OVC010
     FM010000 34027G36KT P6SM OVC010
     FM010300 32020G28KT P6SM OVC020=

USA.gov is the U.S. government's official web portal to all federal, state and local government web resources and services.